PWSweather.com
Personal Weather Stations
Station Observations
MORSE1
Massachusetts, West Townsend, MA 01474

MassachusettsWest Townsend, MA 01474

Lat: 42.676, Lon: -71.749

Elevation: 335

Station Type: Rainwise Mk III

Latest ConditionsUpdated 7:04:00 AM EST Sunday, Jan 20, 2019
Currently Today's Max Today's Min Today's Average
Temperature 15.0°F-9.4°C 24.0°F-4.4°C 14.9°F-9.5°C 17.4°F-8.1°C
Dew Point 12.6°F-10.8°C 21.8°F-5.7°C 12.3°F-10.9°C 15.0°F-9.4°C
Winds 2.4 mph NW3.9 kmh NW 5.9 mph -9.5 kmh - - 2.3 mph 3.7 kmh
Wind Gusts 3.8 mph6.1 kmh 8.0 mph12.9 kmh - -
Humidity 90% 91% 88% 90%
Pressure 29.69 in1005.4 mb 30.08 in1018.6 mb 29.69 in1005.4 mb -
Hour Temp Dew Point Humidity Winds Wind Gusts Pressure Precip Precip Rate Daily Precip Total
07:04 AM 15.0°F-9.4°C 12.6°F-10.8°C 90% 2.4 mph NW3.9 kmh NW 3.8 mph6.1 kmh 29.69 in1005.4 mb 0.00 in0.0 mm 0.00 in0.0 mm 0.00 in0.0 mm
06:59 AM 15.0°F-9.4°C 12.6°F-10.8°C 90% 2.8 mph NNE4.5 kmh NNE 4.3 mph6.9 kmh 29.69 in1005.4 mb 0.00 in0.0 mm 0.00 in0.0 mm 0.00 in0.0 mm
06:54 AM 15.0°F-9.4°C 12.6°F-10.8°C 90% 3.6 mph NNW5.8 kmh NNW 5.3 mph8.5 kmh 29.70 in1005.8 mb 0.00 in0.0 mm 0.00 in0.0 mm 0.00 in0.0 mm
06:49 AM 14.9°F-9.5°C 12.3°F-10.9°C 89% 1.7 mph NNW2.7 kmh NNW 2.8 mph4.5 kmh 29.69 in1005.4 mb 0.00 in0.0 mm 0.00 in0.0 mm 0.00 in0.0 mm
06:44 AM 14.9°F-9.5°C 12.3°F-10.9°C 89% 3.6 mph N5.8 kmh N 6.3 mph10.1 kmh 29.70 in1005.8 mb 0.00 in0.0 mm 0.00 in0.0 mm 0.00 in0.0 mm
06:39 AM 15.0°F-9.4°C 12.6°F-10.8°C 90% 3.6 mph NE5.8 kmh NE 6.0 mph9.7 kmh 29.71 in1006.1 mb 0.00 in0.0 mm 0.00 in0.0 mm 0.00 in0.0 mm
06:34 AM 15.0°F-9.4°C 12.6°F-10.8°C 90% 2.7 mph NW4.3 kmh NW 4.3 mph6.9 kmh 29.72 in1006.4 mb 0.00 in0.0 mm 0.00 in0.0 mm 0.00 in0.0 mm
06:29 AM 14.9°F-9.5°C 12.3°F-10.9°C 89% 2.9 mph NE4.7 kmh NE 4.5 mph7.2 kmh 29.72 in1006.4 mb 0.00 in0.0 mm 0.00 in0.0 mm 0.00 in0.0 mm
06:24 AM 14.9°F-9.5°C 12.3°F-10.9°C 89% 2.9 mph NNE4.7 kmh NNE 4.8 mph7.7 kmh 29.73 in1006.8 mb 0.00 in0.0 mm 0.00 in0.0 mm 0.00 in0.0 mm
06:19 AM 15.0°F-9.4°C 12.6°F-10.8°C 90% 3.6 mph N5.8 kmh N 5.5 mph8.9 kmh 29.73 in1006.8 mb 0.00 in0.0 mm 0.00 in0.0 mm 0.00 in0.0 mm
06:14 AM 15.0°F-9.4°C 12.6°F-10.8°C 90% 2.0 mph N3.2 kmh N 3.3 mph5.3 kmh 29.74 in1007.1 mb 0.00 in0.0 mm 0.00 in0.0 mm 0.00 in0.0 mm
06:09 AM 15.0°F-9.4°C 12.6°F-10.8°C 90% 1.6 mph NE2.6 kmh NE 3.8 mph6.1 kmh 29.74 in1007.1 mb 0.00 in0.0 mm 0.00 in0.0 mm 0.00 in0.0 mm
06:04 AM 15.0°F-9.4°C 12.6°F-10.8°C 90% 2.8 mph NNE4.5 kmh NNE 5.0 mph8.0 kmh 29.74 in1007.1 mb 0.00 in0.0 mm 0.00 in0.0 mm 0.00 in0.0 mm
05:59 AM 15.0°F-9.4°C 12.6°F-10.8°C 90% 2.5 mph N4.0 kmh N 4.3 mph6.9 kmh 29.75 in1007.5 mb 0.00 in0.0 mm 0.00 in0.0 mm 0.00 in0.0 mm
05:54 AM 16.0°F-8.9°C 13.6°F-10.2°C 90% 3.3 mph NNW5.3 kmh NNW 5.0 mph8.0 kmh 29.75 in1007.5 mb 0.00 in0.0 mm 0.00 in0.0 mm 0.00 in0.0 mm
05:49 AM 16.0°F-8.9°C 13.6°F-10.2°C 90% 3.9 mph NNE6.3 kmh NNE 7.8 mph12.6 kmh 29.75 in1007.5 mb 0.00 in0.0 mm 0.00 in0.0 mm 0.00 in0.0 mm
05:44 AM 15.9°F-8.9°C 13.2°F-10.4°C 89% 2.2 mph N3.5 kmh N 3.5 mph5.6 kmh 29.75 in1007.5 mb 0.00 in0.0 mm 0.00 in0.0 mm 0.00 in0.0 mm
05:39 AM 16.0°F-8.9°C 13.6°F-10.2°C 90% 2.6 mph NNE4.2 kmh NNE 4.0 mph6.4 kmh 29.76 in1007.8 mb 0.00 in0.0 mm 0.00 in0.0 mm 0.00 in0.0 mm
05:34 AM 16.0°F-8.9°C 13.6°F-10.2°C 90% 2.3 mph N3.7 kmh N 5.3 mph8.5 kmh 29.76 in1007.8 mb 0.00 in0.0 mm 0.00 in0.0 mm 0.00 in0.0 mm
05:29 AM 15.9°F-8.9°C 13.2°F-10.4°C 89% 2.8 mph NNE4.5 kmh NNE 5.0 mph8.0 kmh 29.77 in1008.1 mb 0.00 in0.0 mm 0.00 in0.0 mm 0.00 in0.0 mm
05:24 AM 16.0°F-8.9°C 13.6°F-10.2°C 90% 0.7 mph N1.1 kmh N 2.3 mph3.7 kmh 29.77 in1008.1 mb 0.00 in0.0 mm 0.00 in0.0 mm 0.00 in0.0 mm
05:19 AM 16.8°F-8.4°C 14.4°F-9.8°C 90% 1.9 mph NNW3.1 kmh NNW 3.0 mph4.8 kmh 29.77 in1008.1 mb 0.00 in0.0 mm 0.00 in0.0 mm 0.00 in0.0 mm
05:14 AM 16.9°F-8.4°C 14.2°F-9.9°C 89% 3.8 mph N6.1 kmh N 6.3 mph10.1 kmh 29.78 in1008.5 mb 0.00 in0.0 mm 0.00 in0.0 mm 0.00 in0.0 mm
05:09 AM 17.0°F-8.3°C 14.8°F-9.6°C 91% 4.2 mph NE6.8 kmh NE 6.3 mph10.1 kmh 29.79 in1008.8 mb 0.00 in0.0 mm 0.00 in0.0 mm 0.00 in0.0 mm
05:04 AM 16.9°F-8.4°C 14.5°F-9.7°C 90% 3.5 mph ENE5.6 kmh ENE 5.5 mph8.9 kmh 29.79 in1008.8 mb 0.00 in0.0 mm 0.00 in0.0 mm 0.00 in0.0 mm
04:59 AM 16.9°F-8.4°C 14.5°F-9.7°C 90% 2.2 mph NW3.5 kmh NW 3.8 mph6.1 kmh 29.80 in1009.1 mb 0.00 in0.0 mm 0.00 in0.0 mm 0.00 in0.0 mm
04:54 AM 17.0°F-8.3°C 14.8°F-9.6°C 91% 2.6 mph NE4.2 kmh NE 3.8 mph6.1 kmh 29.81 in1009.5 mb 0.00 in0.0 mm 0.00 in0.0 mm 0.00 in0.0 mm
04:49 AM 17.0°F-8.3°C 14.8°F-9.6°C 91% 1.9 mph NE3.1 kmh NE 3.0 mph4.8 kmh 29.81 in1009.5 mb 0.00 in0.0 mm 0.00 in0.0 mm 0.00 in0.0 mm
04:44 AM 17.0°F-8.3°C 14.8°F-9.6°C 91% 2.3 mph N3.7 kmh N 4.0 mph6.4 kmh 29.81 in1009.5 mb 0.00 in0.0 mm 0.00 in0.0 mm 0.00 in0.0 mm
04:39 AM 17.0°F-8.3°C 14.8°F-9.6°C 91% 2.1 mph N3.4 kmh N 3.3 mph5.3 kmh 29.82 in1009.8 mb 0.00 in0.0 mm 0.00 in0.0 mm 0.00 in0.0 mm
04:34 AM 16.9°F-8.4°C 14.5°F-9.7°C 90% 2.3 mph NNW3.7 kmh NNW 4.0 mph6.4 kmh 29.82 in1009.8 mb 0.00 in0.0 mm 0.00 in0.0 mm 0.00 in0.0 mm
04:29 AM 17.0°F-8.3°C 14.8°F-9.6°C 91% 3.0 mph N4.8 kmh N 5.5 mph8.9 kmh 29.82 in1009.8 mb 0.00 in0.0 mm 0.00 in0.0 mm 0.00 in0.0 mm
04:24 AM 17.0°F-8.3°C 14.8°F-9.6°C 91% 2.1 mph N3.4 kmh N 4.0 mph6.4 kmh 29.83 in1010.2 mb 0.00 in0.0 mm 0.00 in0.0 mm 0.00 in0.0 mm
04:19 AM 17.0°F-8.3°C 14.8°F-9.6°C 91% 0.7 mph N1.1 kmh N 2.5 mph4.0 kmh 29.84 in1010.5 mb 0.00 in0.0 mm 0.00 in0.0 mm 0.00 in0.0 mm
04:14 AM 17.0°F-8.3°C 14.8°F-9.6°C 91% 2.5 mph NE4.0 kmh NE 4.3 mph6.9 kmh 29.84 in1010.5 mb 0.00 in0.0 mm 0.00 in0.0 mm 0.00 in0.0 mm
04:09 AM 17.0°F-8.3°C 14.8°F-9.6°C 91% 3.5 mph NNE5.6 kmh NNE 4.3 mph6.9 kmh 29.85 in1010.8 mb 0.00 in0.0 mm 0.00 in0.0 mm 0.00 in0.0 mm
04:04 AM 16.9°F-8.4°C 14.5°F-9.7°C 90% 3.9 mph NE6.3 kmh NE 5.0 mph8.0 kmh 29.86 in1011.2 mb 0.00 in0.0 mm 0.00 in0.0 mm 0.00 in0.0 mm
03:59 AM 17.0°F-8.3°C 14.8°F-9.6°C 91% 2.8 mph NNE4.5 kmh NNE 4.0 mph6.4 kmh 29.86 in1011.2 mb 0.00 in0.0 mm 0.00 in0.0 mm 0.00 in0.0 mm
03:54 AM 16.9°F-8.4°C 14.5°F-9.7°C 90% 1.3 mph N2.1 kmh N 3.0 mph4.8 kmh 29.87 in1011.5 mb 0.00 in0.0 mm 0.00 in0.0 mm 0.00 in0.0 mm
03:49 AM 16.9°F-8.4°C 14.5°F-9.7°C 90% 1.7 mph NNE2.7 kmh NNE 3.0 mph4.8 kmh 29.87 in1011.5 mb 0.00 in0.0 mm 0.00 in0.0 mm 0.00 in0.0 mm
03:44 AM 17.0°F-8.3°C 14.8°F-9.6°C 91% 1.3 mph NNW2.1 kmh NNW 2.8 mph4.5 kmh 29.87 in1011.5 mb 0.00 in0.0 mm 0.00 in0.0 mm 0.00 in0.0 mm
03:39 AM 16.9°F-8.4°C 14.5°F-9.7°C 90% 2.8 mph NNW4.5 kmh NNW 4.3 mph6.9 kmh 29.88 in1011.9 mb 0.00 in0.0 mm 0.00 in0.0 mm 0.00 in0.0 mm
03:34 AM 17.0°F-8.3°C 14.8°F-9.6°C 91% 1.5 mph NNE2.4 kmh NNE 3.3 mph5.3 kmh 29.88 in1011.9 mb 0.00 in0.0 mm 0.00 in0.0 mm 0.00 in0.0 mm
03:29 AM 17.0°F-8.3°C 14.8°F-9.6°C 91% 1.9 mph NE3.1 kmh NE 3.0 mph4.8 kmh 29.89 in1012.2 mb 0.00 in0.0 mm 0.00 in0.0 mm 0.00 in0.0 mm
03:24 AM 16.9°F-8.4°C 14.5°F-9.7°C 90% 1.8 mph N2.9 kmh N 3.5 mph5.6 kmh 29.90 in1012.5 mb 0.00 in0.0 mm 0.00 in0.0 mm 0.00 in0.0 mm
03:19 AM 17.0°F-8.3°C 14.8°F-9.6°C 91% 1.2 mph NNW1.9 kmh NNW 3.0 mph4.8 kmh 29.90 in1012.5 mb 0.00 in0.0 mm 0.00 in0.0 mm 0.00 in0.0 mm
03:14 AM 17.0°F-8.3°C 14.8°F-9.6°C 91% 2.2 mph NNW3.5 kmh NNW 3.3 mph5.3 kmh 29.91 in1012.9 mb 0.00 in0.0 mm 0.00 in0.0 mm 0.00 in0.0 mm
03:09 AM 17.0°F-8.3°C 14.8°F-9.6°C 91% 1.6 mph NNW2.6 kmh NNW 3.3 mph5.3 kmh 29.92 in1013.2 mb 0.00 in0.0 mm 0.00 in0.0 mm 0.00 in0.0 mm
03:04 AM 16.9°F-8.4°C 14.5°F-9.7°C 90% 2.1 mph NW3.4 kmh NW 4.0 mph6.4 kmh 29.93 in1013.5 mb 0.00 in0.0 mm 0.00 in0.0 mm 0.00 in0.0 mm
02:59 AM 17.0°F-8.3°C 14.8°F-9.6°C 91% 2.0 mph NW3.2 kmh NW 3.0 mph4.8 kmh 29.93 in1013.5 mb 0.00 in0.0 mm 0.00 in0.0 mm 0.00 in0.0 mm
02:54 AM 17.0°F-8.3°C 14.8°F-9.6°C 91% 0.6 mph NNW1.0 kmh NNW 2.0 mph3.2 kmh 29.94 in1013.9 mb 0.00 in0.0 mm 0.00 in0.0 mm 0.00 in0.0 mm
02:49 AM 17.0°F-8.3°C 14.8°F-9.6°C 91% 1.6 mph N2.6 kmh N 2.8 mph4.5 kmh 29.94 in1013.9 mb 0.00 in0.0 mm 0.00 in0.0 mm 0.00 in0.0 mm
02:44 AM 17.0°F-8.3°C 14.6°F-9.7°C 90% 0.2 mph NNW0.3 kmh NNW 2.0 mph3.2 kmh 29.95 in1014.2 mb 0.00 in0.0 mm 0.00 in0.0 mm 0.00 in0.0 mm
02:39 AM 17.0°F-8.3°C 14.6°F-9.7°C 90% 2.4 mph NNW3.9 kmh NNW 3.8 mph6.1 kmh 29.94 in1013.9 mb 0.00 in0.0 mm 0.00 in0.0 mm 0.00 in0.0 mm
02:34 AM 17.0°F-8.3°C 14.6°F-9.7°C 90% 1.3 mph N2.1 kmh N 3.0 mph4.8 kmh 29.95 in1014.2 mb 0.00 in0.0 mm 0.00 in0.0 mm 0.00 in0.0 mm
02:29 AM 16.9°F-8.4°C 14.2°F-9.9°C 89% 1.6 mph NNE2.6 kmh NNE 2.5 mph4.0 kmh 29.96 in1014.6 mb 0.00 in0.0 mm 0.00 in0.0 mm 0.00 in0.0 mm
02:24 AM 17.0°F-8.3°C 14.6°F-9.7°C 90% 2.0 mph N3.2 kmh N 3.3 mph5.3 kmh 29.97 in1014.9 mb 0.00 in0.0 mm 0.00 in0.0 mm 0.00 in0.0 mm
02:19 AM 17.0°F-8.3°C 14.6°F-9.7°C 90% 1.2 mph NNW1.9 kmh NNW 2.3 mph3.7 kmh 29.96 in1014.6 mb 0.00 in0.0 mm 0.00 in0.0 mm 0.00 in0.0 mm
02:14 AM 17.0°F-8.3°C 14.6°F-9.7°C 90% 1.5 mph NNW2.4 kmh NNW 2.8 mph4.5 kmh 29.98 in1015.2 mb 0.00 in0.0 mm 0.00 in0.0 mm 0.00 in0.0 mm
02:09 AM 16.9°F-8.4°C 14.2°F-9.9°C 89% 2.1 mph NNW3.4 kmh NNW 3.5 mph5.6 kmh 29.97 in1014.9 mb 0.00 in0.0 mm 0.00 in0.0 mm 0.00 in0.0 mm
02:04 AM 17.0°F-8.3°C 14.6°F-9.7°C 90% 0.3 mph N0.5 kmh N 1.5 mph2.4 kmh 29.97 in1014.9 mb 0.00 in0.0 mm 0.00 in0.0 mm 0.00 in0.0 mm
01:59 AM 16.9°F-8.4°C 14.2°F-9.9°C 89% 2.3 mph NNE3.7 kmh NNE 3.3 mph5.3 kmh 29.96 in1014.6 mb 0.00 in0.0 mm 0.00 in0.0 mm 0.00 in0.0 mm
01:54 AM 16.9°F-8.4°C 14.2°F-9.9°C 89% 0.7 mph NNE1.1 kmh NNE 2.0 mph3.2 kmh 29.97 in1014.9 mb 0.00 in0.0 mm 0.00 in0.0 mm 0.00 in0.0 mm
01:49 AM 17.0°F-8.3°C 14.6°F-9.7°C 90% 1.8 mph NNW2.9 kmh NNW 3.5 mph5.6 kmh 29.97 in1014.9 mb 0.00 in0.0 mm 0.00 in0.0 mm 0.00 in0.0 mm
01:44 AM 17.0°F-8.3°C 14.6°F-9.7°C 90% 3.0 mph NNE4.8 kmh NNE 5.0 mph8.0 kmh 29.99 in1015.6 mb 0.00 in0.0 mm 0.00 in0.0 mm 0.00 in0.0 mm
01:39 AM 17.0°F-8.3°C 14.6°F-9.7°C 90% 1.8 mph NNE2.9 kmh NNE 3.0 mph4.8 kmh 29.99 in1015.6 mb 0.00 in0.0 mm 0.00 in0.0 mm 0.00 in0.0 mm
01:34 AM 18.0°F-7.8°C 15.6°F-9.1°C 90% 2.5 mph N4.0 kmh N 4.0 mph6.4 kmh 30.00 in1015.9 mb 0.00 in0.0 mm 0.00 in0.0 mm 0.00 in0.0 mm
01:29 AM 18.0°F-7.8°C 15.6°F-9.1°C 90% 2.1 mph NNW3.4 kmh NNW 4.0 mph6.4 kmh 30.00 in1015.9 mb 0.00 in0.0 mm 0.00 in0.0 mm 0.00 in0.0 mm
01:24 AM 18.0°F-7.8°C 15.6°F-9.1°C 90% 2.0 mph N3.2 kmh N 3.8 mph6.1 kmh 30.00 in1015.9 mb 0.00 in0.0 mm 0.00 in0.0 mm 0.00 in0.0 mm
01:19 AM 18.0°F-7.8°C 15.3°F-9.3°C 89% 2.3 mph NNW3.7 kmh NNW 3.5 mph5.6 kmh 30.01 in1016.3 mb 0.00 in0.0 mm 0.00 in0.0 mm 0.00 in0.0 mm
01:14 AM 17.9°F-7.8°C 15.0°F-9.4°C 88% 1.4 mph N2.3 kmh N 3.8 mph6.1 kmh 30.02 in1016.6 mb 0.00 in0.0 mm 0.00 in0.0 mm 0.00 in0.0 mm
01:09 AM 18.0°F-7.8°C 15.3°F-9.3°C 89% 2.1 mph N3.4 kmh N 2.8 mph4.5 kmh 30.02 in1016.6 mb 0.00 in0.0 mm 0.00 in0.0 mm 0.00 in0.0 mm
01:04 AM 19.0°F-7.2°C 16.3°F-8.7°C 89% 3.8 mph NE6.1 kmh NE 6.3 mph10.1 kmh 30.02 in1016.6 mb 0.00 in0.0 mm 0.00 in0.0 mm 0.00 in0.0 mm
12:59 AM 19.0°F-7.2°C 16.3°F-8.7°C 89% 2.9 mph NNE4.7 kmh NNE 4.0 mph6.4 kmh 30.02 in1016.6 mb 0.00 in0.0 mm 0.00 in0.0 mm 0.00 in0.0 mm
12:54 AM 19.3°F-7.1°C 16.6°F-8.6°C 89% 4.2 mph N6.8 kmh N 6.0 mph9.7 kmh 30.03 in1016.9 mb 0.00 in0.0 mm 0.00 in0.0 mm 0.00 in0.0 mm
12:49 AM 20.0°F-6.7°C 17.3°F-8.2°C 89% 3.3 mph NNE5.3 kmh NNE 5.8 mph9.3 kmh 30.04 in1017.3 mb 0.00 in0.0 mm 0.00 in0.0 mm 0.00 in0.0 mm
12:44 AM 21.0°F-6.1°C 18.3°F-7.6°C 89% 2.6 mph NNW4.2 kmh NNW 4.0 mph6.4 kmh 30.04 in1017.3 mb 0.00 in0.0 mm 0.00 in0.0 mm 0.00 in0.0 mm
12:39 AM 22.0°F-5.6°C 19.3°F-7.1°C 89% 4.6 mph N7.4 kmh N 7.5 mph12.1 kmh 30.05 in1017.6 mb 0.00 in0.0 mm 0.00 in0.0 mm 0.00 in0.0 mm
12:34 AM 23.0°F-5.0°C 20.5°F-6.4°C 90% 3.3 mph NNE5.3 kmh NNE 5.8 mph9.3 kmh 30.06 in1017.9 mb 0.00 in0.0 mm 0.00 in0.0 mm 0.00 in0.0 mm
12:29 AM 23.0°F-5.0°C 20.8°F-6.2°C 91% 5.9 mph N9.5 kmh N 8.0 mph12.9 kmh 30.06 in1017.9 mb 0.00 in0.0 mm 0.00 in0.0 mm 0.00 in0.0 mm
12:24 AM 22.9°F-5.1°C 20.4°F-6.4°C 90% 4.1 mph N6.6 kmh N 6.5 mph10.5 kmh 30.06 in1017.9 mb 0.00 in0.0 mm 0.00 in0.0 mm 0.00 in0.0 mm
12:19 AM 23.9°F-4.5°C 21.4°F-5.9°C 90% 0.4 mph NNE0.6 kmh NNE 1.5 mph2.4 kmh 30.06 in1017.9 mb 0.00 in0.0 mm 0.00 in0.0 mm 0.00 in0.0 mm
12:14 AM 24.0°F-4.4°C 21.8°F-5.7°C 91% 2.0 mph NNE3.2 kmh NNE 3.3 mph5.3 kmh 30.07 in1018.3 mb 0.00 in0.0 mm 0.00 in0.0 mm 0.00 in0.0 mm
12:09 AM 24.0°F-4.4°C 21.8°F-5.7°C 91% 0.9 mph N1.4 kmh N 2.0 mph3.2 kmh 30.07 in1018.3 mb 0.00 in0.0 mm 0.00 in0.0 mm 0.00 in0.0 mm
12:04 AM 24.0°F-4.4°C 21.8°F-5.7°C 91% 1.1 mph N1.8 kmh N 2.8 mph4.5 kmh 30.08 in1018.6 mb 0.00 in0.0 mm 0.00 in0.0 mm 0.00 in0.0 mm